Time;durP1;ratioP1;P1;durP2;ratioP2;P2;SDS_P1;SDS_P2;PMS_P1;PMS_P2;Temp;Humidity;BMP_temperature;BMP_pressure;BME280_temperature;BME280_humidity;BME280_pressure;Samples;Min_cycle;Max_cycle;Signal;HPM_P1;HPM_P2
2023/01/28 00:02:08;;;;;;;17.47;12.33;;;-0.40;99.90;;;;;;5089602;28;20231;-84
2023/01/28 00:04:37;;;;;;;17.33;12.83;;;-0.40;99.90;;;;;;5089609;28;20224;-83
2023/01/28 00:07:05;;;;;;;15.60;11.70;;;-0.40;99.90;;;;;;5089954;28;20215;-84
2023/01/28 00:09:33;;;;;;;16.50;13.23;;;-0.40;99.90;;;;;;5090245;28;20211;-84
2023/01/28 00:12:02;;;;;;;16.00;11.33;;;-0.40;99.90;;;;;;5090052;28;20223;-84
2023/01/28 00:14:30;;;;;;;15.60;11.67;;;-0.40;99.90;;;;;;5090644;28;20224;-84
2023/01/28 00:17:00;;;;;;;14.30;11.57;;;-0.50;99.90;;;;;;5090203;28;20216;-84
2023/01/28 00:19:28;;;;;;;15.53;12.63;;;-0.40;99.90;;;;;;5089605;28;20295;-85
2023/01/28 00:21:56;;;;;;;17.63;12.10;;;-0.50;99.90;;;;;;5089840;28;20224;-84
2023/01/28 00:24:25;;;;;;;17.90;13.07;;;-0.50;99.90;;;;;;5090265;28;20224;-84
2023/01/28 00:26:53;;;;;;;16.23;11.87;;;-0.40;99.90;;;;;;5090278;28;20247;-85
2023/01/28 00:29:21;;;;;;;15.50;11.40;;;-0.40;99.90;;;;;;5089757;28;20211;-84
2023/01/28 00:31:49;;;;;;;17.50;12.73;;;-0.40;99.90;;;;;;5092830;28;20216;-85
2023/01/28 00:34:20;;;;;;;14.33;12.73;;;-0.40;99.90;;;;;;5093031;28;20216;-84
2023/01/28 00:36:56;;;;;;;15.80;12.57;;;-0.40;99.90;;;;;;5093885;28;20212;-85
2023/01/28 00:39:25;;;;;;;19.47;13.37;;;-0.40;99.90;;;;;;5084359;28;20209;-85
2023/01/28 00:41:54;;;;;;;16.60;12.80;;;-0.40;99.90;;;;;;5092885;28;20280;-84
2023/01/28 00:44:22;;;;;;;22.33;13.53;;;-0.40;99.90;;;;;;5092246;28;20221;-84
2023/01/28 00:46:50;;;;;;;21.03;13.73;;;-0.40;99.90;;;;;;5076981;28;20204;-84
2023/01/28 00:49:20;;;;;;;16.77;13.40;;;-0.50;99.90;;;;;;5072877;28;20213;-84
2023/01/28 00:51:49;;;;;;;20.97;14.53;;;-0.50;99.90;;;;;;5073821;28;20205;-85
2023/01/28 00:54:17;;;;;;;18.03;13.10;;;-0.40;99.90;;;;;;5074419;28;20263;-86
2023/01/28 00:56:45;;;;;;;15.57;13.33;;;-0.50;99.90;;;;;;5089826;28;20204;-86
2023/01/28 00:59:14;;;;;;;17.57;13.27;;;-0.40;99.90;;;;;;5077869;28;20201;-85
2023/01/28 01:01:42;;;;;;;19.63;14.13;;;-0.50;99.90;;;;;;5075151;28;20228;-85
2023/01/28 01:04:11;;;;;;;14.50;13.00;;;-0.50;99.90;;;;;;5089645;28;20220;-86
2023/01/28 01:06:41;;;;;;;17.90;14.33;;;-0.40;99.90;;;;;;5075587;28;20201;-85
2023/01/28 01:09:12;;;;;;;20.37;14.50;;;-0.50;99.90;;;;;;5075648;28;20205;-86
2023/01/28 01:11:40;;;;;;;17.20;13.13;;;-0.50;99.90;;;;;;5075371;28;20197;-85
2023/01/28 01:14:10;;;;;;;21.10;14.80;;;-0.40;99.90;;;;;;5075068;28;20244;-85
2023/01/28 01:16:38;;;;;;;20.53;13.50;;;-0.50;99.90;;;;;;5094594;28;20200;-86
2023/01/28 01:19:07;;;;;;;18.57;14.53;;;-0.40;99.90;;;;;;5095849;28;20211;-86
2023/01/28 01:21:36;;;;;;;19.43;15.37;;;-0.50;99.90;;;;;;5095572;28;20295;-85
2023/01/28 01:24:06;;;;;;;27.33;14.40;;;-0.40;99.90;;;;;;5095285;28;20224;-85
2023/01/28 01:26:35;;;;;;;20.30;14.30;;;-0.40;99.90;;;;;;5094769;28;20212;-85
2023/01/28 01:29:03;;;;;;;17.43;14.33;;;-0.40;99.90;;;;;;5095142;28;20208;-84
2023/01/28 01:31:31;;;;;;;19.87;13.77;;;-0.40;99.90;;;;;;5095833;28;20219;-85
2023/01/28 01:33:59;;;;;;;16.97;13.87;;;-0.40;99.90;;;;;;5094971;28;20243;-85
2023/01/28 01:36:28;;;;;;;15.93;13.73;;;-0.40;99.90;;;;;;5094884;28;20204;-85
2023/01/28 01:38:56;;;;;;;21.90;15.90;;;-0.40;99.90;;;;;;5094774;28;20219;-85
2023/01/28 01:41:29;;;;;;;15.10;12.43;;;-0.40;99.90;;;;;;5094984;28;20201;-85
2023/01/28 01:43:59;;;;;;;17.67;13.17;;;-0.40;99.90;;;;;;5094398;28;20224;-85
2023/01/28 01:46:35;;;;;;;17.40;13.43;;;-0.50;99.90;;;;;;5095029;28;20201;-85
2023/01/28 01:49:13;;;;;;;17.07;13.63;;;-0.50;99.90;;;;;;5094841;28;20211;-85
2023/01/28 01:51:43;;;;;;;18.67;14.53;;;-0.50;99.90;;;;;;5094767;28;20240;-85
2023/01/28 01:54:11;;;;;;;11.60;9.77;;;-0.40;99.90;;;;;;5094373;28;20232;-84
2023/01/28 01:56:44;;;;;;;20.17;13.30;;;-0.50;99.90;;;;;;5094380;28;20204;-85
2023/01/28 01:59:17;;;;;;;16.47;12.57;;;-0.50;99.90;;;;;;5077158;28;20197;-85
2023/01/28 02:01:46;;;;;;;17.37;13.27;;;-0.50;99.90;;;;;;5074450;28;20205;-85
2023/01/28 02:04:20;;;;;;;23.93;14.33;;;-0.50;99.90;;;;;;5075536;28;20279;-85
2023/01/28 02:06:48;;;;;;;17.83;15.43;;;-0.40;99.90;;;;;;5094481;28;20213;-85
2023/01/28 02:09:25;;;;;;;18.83;13.50;;;-0.50;99.90;;;;;;5093991;28;20193;-85
2023/01/28 02:11:57;;;;;;;18.33;14.07;;;-0.50;99.90;;;;;;5093962;28;20204;-86
2023/01/28 02:14:27;;;;;;;16.97;13.77;;;-0.50;99.90;;;;;;5094719;28;20228;-86
2023/01/28 02:16:59;;;;;;;16.63;13.00;;;-0.50;99.90;;;;;;5094013;28;20237;-86
2023/01/28 02:19:35;;;;;;;19.97;13.87;;;-0.40;99.90;;;;;;5094353;28;20291;-85
2023/01/28 02:22:19;;;;;;;18.07;13.93;;;-0.40;99.90;;;;;;5093836;28;20207;-85
2023/01/28 02:25:19;;;;;;;18.60;14.10;;;-0.40;99.90;;;;;;5093821;28;20200;-86
2023/01/28 02:28:01;;;;;;;20.17;13.60;;;-0.40;99.90;;;;;;5094126;28;20223;-86
2023/01/28 02:30:35;;;;;;;16.70;14.03;;;-0.40;99.90;;;;;;5094296;28;20208;-87
2023/01/28 02:33:09;;;;;;;24.90;15.60;;;-0.40;99.90;;;;;;5093696;28;20220;-86
2023/01/28 02:35:43;;;;;;;21.93;14.70;;;-0.40;99.90;;;;;;5093810;28;20267;-86
2023/01/28 02:38:16;;;;;;;16.27;13.10;;;-0.40;99.90;;;;;;5093732;28;20208;-86
2023/01/28 02:41:04;;;;;;;17.53;14.10;;;-0.30;99.90;;;;;;5074162;28;20201;-86
2023/01/28 02:43:37;;;;;;;20.93;15.10;;;-0.40;99.90;;;;;;5073705;28;20304;-86
2023/01/28 02:49:03;;;;;;;26.10;15.50;;;-0.40;99.90;;;;;;5073098;28;20201;-86
2023/01/28 02:51:48;;;;;;;17.53;13.37;;;-0.40;99.90;;;;;;5073529;28;20296;-86
2023/01/28 02:54:26;;;;;;;17.80;14.13;;;-0.40;99.90;;;;;;5089231;28;20291;-86
2023/01/28 02:57:01;;;;;;;18.00;13.33;;;-0.40;99.90;;;;;;5093830;28;20206;-86
2023/01/28 02:59:40;;;;;;;15.90;13.07;;;-0.40;99.90;;;;;;5093767;28;20200;-86
2023/01/28 03:02:15;;;;;;;16.43;13.40;;;-0.40;99.90;;;;;;5093101;28;20204;-86
2023/01/28 03:04:50;;;;;;;16.60;13.17;;;-0.40;99.90;;;;;;5093489;28;20232;-87
2023/01/28 03:07:20;;;;;;;17.90;13.93;;;-0.40;99.90;;;;;;5093137;28;20238;-86
2023/01/28 03:09:50;;;;;;;17.90;13.80;;;-0.40;99.90;;;;;;5093484;28;20311;-86
2023/01/28 03:37:59;;;;;;;23.37;14.87;;;-0.60;99.90;;;;;;5093394;28;20219;-87
2023/01/28 03:40:28;;;;;;;18.67;13.63;;;-0.60;99.90;;;;;;5092807;28;20216;-87
2023/01/28 03:42:56;;;;;;;19.20;14.10;;;-0.60;99.90;;;;;;5092288;28;20228;-86
2023/01/28 03:45:24;;;;;;;17.67;13.70;;;-0.60;99.90;;;;;;5092327;28;20207;-87
2023/01/28 03:47:54;;;;;;;18.70;14.63;;;-0.60;99.90;;;;;;5092733;28;20260;-86
2023/01/28 03:50:23;;;;;;;16.53;12.60;;;-0.60;99.90;;;;;;5092785;28;20204;-86
2023/01/28 03:52:51;;;;;;;18.53;13.70;;;-0.70;99.90;;;;;;5092680;28;20251;-87
2023/01/28 03:55:19;;;;;;;18.27;14.23;;;-0.70;99.90;;;;;;5092928;28;20216;-86
2023/01/28 03:57:47;;;;;;;20.30;15.40;;;-0.60;99.90;;;;;;5092460;28;20208;-87
2023/01/28 04:00:18;;;;;;;18.37;14.77;;;-0.60;99.90;;;;;;5092376;28;20207;-87
2023/01/28 04:02:47;;;;;;;19.03;13.43;;;-0.60;99.90;;;;;;5092411;28;20224;-87
2023/01/28 04:05:19;;;;;;;19.17;14.03;;;-0.60;99.90;;;;;;5092926;28;20204;-86
2023/01/28 04:07:50;;;;;;;15.03;13.50;;;-0.60;99.90;;;;;;5096598;28;20204;-86
2023/01/28 04:10:18;;;;;;;16.00;13.97;;;-0.60;99.90;;;;;;5096680;28;20201;-86
2023/01/28 04:12:53;;;;;;;13.10;10.53;;;-0.60;99.90;;;;;;5096336;28;20259;-86
2023/01/28 04:15:22;;;;;;;16.47;12.93;;;-0.60;99.90;;;;;;5097158;28;20211;-86
2023/01/28 04:17:51;;;;;;;27.50;13.17;;;-0.70;99.90;;;;;;5096593;28;20208;-86
2023/01/28 04:20:20;;;;;;;18.33;14.27;;;-0.60;99.90;;;;;;5096595;28;20287;-87
2023/01/28 04:22:49;;;;;;;20.57;14.47;;;-0.60;99.90;;;;;;5096688;28;20224;-87
2023/01/28 04:25:17;;;;;;;24.00;16.07;;;-0.60;99.90;;;;;;5095834;28;20223;-87
2023/01/28 04:27:45;;;;;;;22.53;15.67;;;-0.60;99.90;;;;;;5096694;28;20209;-87
2023/01/28 04:30:13;;;;;;;18.73;15.33;;;-0.60;99.90;;;;;;5096379;28;20210;-86
2023/01/28 04:32:42;;;;;;;18.53;14.27;;;-0.60;99.90;;;;;;5096510;28;20295;-87
2023/01/28 04:35:10;;;;;;;20.50;15.37;;;-0.60;99.90;;;;;;5096205;28;20196;-87
2023/01/28 04:37:41;;;;;;;15.63;13.93;;;-0.70;99.90;;;;;;5095865;28;20208;-87
2023/01/28 04:40:10;;;;;;;16.37;14.17;;;-0.70;99.90;;;;;;5095923;28;20227;-86
2023/01/28 04:42:39;;;;;;;19.47;15.30;;;-0.70;99.90;;;;;;5096091;28;20203;-86
2023/01/28 04:45:08;;;;;;;20.37;14.87;;;-0.70;99.90;;;;;;5095916;28;20232;-87
2023/01/28 04:47:37;;;;;;;19.40;13.90;;;-0.60;99.90;;;;;;5096214;28;20211;-86
2023/01/28 04:50:05;;;;;;;24.83;14.93;;;-0.60;99.90;;;;;;5095946;28;20309;-87
2023/01/28 04:52:34;;;;;;;19.47;15.50;;;-0.60;99.90;;;;;;5095979;28;20336;-86
2023/01/28 04:55:04;;;;;;;20.20;15.27;;;-0.70;99.90;;;;;;5075438;28;20224;-86
2023/01/28 04:57:32;;;;;;;22.00;15.93;;;-0.60;99.90;;;;;;5079407;28;20200;-87
2023/01/28 05:00:00;;;;;;;21.67;17.10;;;-0.60;99.90;;;;;;5095970;28;20211;-87
2023/01/28 05:02:29;;;;;;;20.70;14.37;;;-0.70;99.90;;;;;;5095604;28;20208;-87
2023/01/28 05:04:57;;;;;;;23.93;15.40;;;-0.60;99.90;;;;;;5075358;28;20216;-87
2023/01/28 05:07:25;;;;;;;18.97;14.97;;;-0.60;99.90;;;;;;5075081;28;20207;-87
2023/01/28 05:09:53;;;;;;;20.40;16.20;;;-0.60;99.90;;;;;;5095336;28;20197;-87
2023/01/28 05:12:23;;;;;;;18.60;14.43;;;-0.70;99.90;;;;;;5095889;28;20208;-86
2023/01/28 05:14:51;;;;;;;15.60;13.13;;;-0.60;99.90;;;;;;5095715;28;20200;-88
2023/01/28 05:17:20;;;;;;;18.67;14.57;;;-0.60;99.90;;;;;;5094497;28;20298;-87
2023/01/28 05:19:48;;;;;;;22.77;16.57;;;-0.70;99.90;;;;;;5095464;28;20240;-87
2023/01/28 05:22:16;;;;;;;24.07;16.87;;;-0.60;99.90;;;;;;5095674;28;20215;-87
2023/01/28 05:24:45;;;;;;;20.57;14.70;;;-0.60;99.90;;;;;;5094626;28;20256;-86
2023/01/28 05:27:13;;;;;;;26.57;16.47;;;-0.70;99.90;;;;;;5095211;28;20200;-89
2023/01/28 05:29:43;;;;;;;18.50;14.10;;;-0.60;99.90;;;;;;5094992;28;20197;-89
2023/01/28 05:32:11;;;;;;;19.73;15.80;;;-0.60;99.90;;;;;;5095189;28;20204;-89
2023/01/28 05:34:39;;;;;;;23.50;16.67;;;-0.50;99.90;;;;;;5085466;28;20213;-89
2023/01/28 05:37:07;;;;;;;20.77;15.07;;;-0.60;99.90;;;;;;5074735;28;20205;-89
2023/01/28 05:39:36;;;;;;;15.73;12.80;;;-0.60;99.90;;;;;;5074762;28;20297;-89
2023/01/28 05:42:04;;;;;;;23.30;15.20;;;-0.60;99.90;;;;;;5075177;28;20223;-88
2023/01/28 05:44:32;;;;;;;14.93;12.90;;;-0.60;99.90;;;;;;5074870;28;20231;-87
2023/01/28 05:47:02;;;;;;;19.83;15.63;;;-0.60;99.90;;;;;;5085250;28;20285;-87
2023/01/28 05:49:30;;;;;;;16.90;14.17;;;-0.60;99.90;;;;;;5095205;28;20211;-87
2023/01/28 05:52:00;;;;;;;16.90;11.80;;;-0.70;99.90;;;;;;5095126;28;20212;-87
2023/01/28 05:54:28;;;;;;;17.17;13.90;;;-0.60;99.90;;;;;;5094681;28;20231;-87
2023/01/28 05:56:57;;;;;;;18.53;12.63;;;-0.60;99.90;;;;;;5095047;28;20291;-87
2023/01/28 05:59:25;;;;;;;15.73;13.60;;;-0.60;99.90;;;;;;5075164;28;20292;-88
2023/01/28 06:01:53;;;;;;;23.67;15.73;;;-0.60;99.90;;;;;;5074560;28;20205;-87
2023/01/28 06:04:23;;;;;;;21.53;14.50;;;-0.60;99.90;;;;;;5074505;28;20268;-88
2023/01/28 06:06:51;;;;;;;21.30;14.47;;;-0.60;99.90;;;;;;5092084;28;20200;-86
2023/01/28 06:09:20;;;;;;;17.27;13.33;;;-0.60;99.90;;;;;;5093868;28;20205;-86
2023/01/28 06:11:49;;;;;;;17.53;13.53;;;-0.60;99.90;;;;;;5093756;28;20220;-86
2023/01/28 06:14:17;;;;;;;15.10;12.70;;;-0.60;99.90;;;;;;5094575;28;20225;-87
2023/01/28 06:16:45;;;;;;;18.00;15.07;;;-0.50;99.90;;;;;;5093836;28;20204;-86
2023/01/28 06:19:14;;;;;;;18.00;13.00;;;-0.40;99.90;;;;;;5093859;28;20214;-86
2023/01/28 06:21:43;;;;;;;20.10;14.83;;;-0.40;99.90;;;;;;5093226;28;20215;-86
2023/01/28 06:24:12;;;;;;;15.47;13.00;;;-0.40;99.90;;;;;;5093464;28;20223;-86
2023/01/28 06:26:41;;;;;;;17.37;13.83;;;-0.40;99.90;;;;;;5093482;28;20244;-87
2023/01/28 06:29:09;;;;;;;15.97;13.43;;;-0.40;99.90;;;;;;5093214;28;20208;-86
2023/01/28 06:31:37;;;;;;;15.77;13.07;;;-0.30;99.90;;;;;;5094053;28;20218;-85
2023/01/28 06:34:06;;;;;;;29.23;14.77;;;-0.30;99.90;;;;;;5093825;28;20235;-86
2023/01/28 06:36:34;;;;;;;21.67;14.17;;;-0.30;99.90;;;;;;5093364;28;20203;-86
2023/01/28 06:39:04;;;;;;;16.43;13.37;;;-0.30;99.90;;;;;;5093492;28;20196;-86
2023/01/28 06:41:32;;;;;;;17.90;14.23;;;-0.30;99.90;;;;;;5093958;28;20244;-86
2023/01/28 06:44:00;;;;;;;17.90;13.43;;;-0.30;99.90;;;;;;5093570;28;20228;-86
2023/01/28 06:46:29;;;;;;;15.40;12.60;;;-0.30;99.90;;;;;;5093210;28;20220;-87
2023/01/28 06:48:57;;;;;;;18.87;14.30;;;-0.30;99.90;;;;;;5093129;28;20204;-86
2023/01/28 06:51:25;;;;;;;21.50;15.43;;;-0.20;99.90;;;;;;5093176;28;20231;-86
2023/01/28 06:53:54;;;;;;;21.87;16.53;;;-0.20;99.90;;;;;;5093023;28;20220;-87
2023/01/28 06:56:24;;;;;;;21.00;14.10;;;-0.30;99.90;;;;;;5092917;28;20256;-87
2023/01/28 06:58:52;;;;;;;17.83;13.70;;;-0.30;99.90;;;;;;5087476;28;20201;-88
2023/01/28 07:01:20;;;;;;;18.13;14.03;;;-0.20;99.90;;;;;;5092943;28;20231;-87
2023/01/28 07:03:48;;;;;;;19.30;14.40;;;-0.30;99.90;;;;;;5093745;28;20291;-87
2023/01/28 07:06:17;;;;;;;22.40;14.37;;;-0.20;99.90;;;;;;5092571;28;20220;-87
2023/01/28 07:08:45;;;;;;;20.83;16.10;;;-0.30;99.90;;;;;;5092846;28;20207;-86
2023/01/28 07:11:13;;;;;;;19.13;14.30;;;-0.30;99.90;;;;;;5092995;28;20200;-87
2023/01/28 07:13:43;;;;;;;23.50;16.23;;;-0.20;99.90;;;;;;5092808;28;20271;-87
2023/01/28 07:16:11;;;;;;;18.53;14.47;;;-0.20;99.90;;;;;;5092606;28;20275;-87
2023/01/28 07:18:40;;;;;;;18.83;13.57;;;-0.20;99.90;;;;;;5092570;28;20207;-87
2023/01/28 07:21:08;;;;;;;31.50;16.03;;;-0.20;99.90;;;;;;5093256;28;20214;-87
2023/01/28 07:23:38;;;;;;;18.63;15.70;;;-0.20;99.90;;;;;;5092865;28;20220;-87
2023/01/28 07:26:06;;;;;;;21.00;15.90;;;-0.20;99.90;;;;;;5092425;28;20217;-87
2023/01/28 07:28:35;;;;;;;27.03;16.13;;;-0.20;99.90;;;;;;5085802;28;20201;-87
2023/01/28 07:31:05;;;;;;;20.83;16.80;;;-0.10;99.90;;;;;;5082824;28;20200;-85
2023/01/28 07:33:33;;;;;;;22.27;13.63;;;-0.20;99.90;;;;;;5092573;28;20222;-81
2023/01/28 07:36:02;;;;;;;23.23;16.73;;;-0.20;99.90;;;;;;5088530;28;20196;-87
2023/01/28 07:38:30;;;;;;;19.97;15.17;;;-0.20;99.90;;;;;;5083563;28;20219;-87
2023/01/28 07:40:59;;;;;;;22.10;15.70;;;-0.10;99.90;;;;;;5090264;28;20211;-87
2023/01/28 07:43:27;;;;;;;28.33;17.10;;;-0.10;99.90;;;;;;5072261;28;20312;-86
2023/01/28 07:45:55;;;;;;;20.63;16.77;;;-0.10;99.90;;;;;;5073488;28;20224;-87
2023/01/28 07:48:25;;;;;;;17.73;14.07;;;-0.10;99.90;;;;;;5074453;28;20205;-87
2023/01/28 07:50:53;;;;;;;23.30;16.77;;;-0.10;99.90;;;;;;5091829;28;20207;-87
2023/01/28 07:53:22;;;;;;;20.87;16.80;;;0.00;99.90;;;;;;5074577;28;20228;-87
2023/01/28 07:55:51;;;;;;;19.57;14.13;;;0.00;99.90;;;;;;5083246;28;20217;-86
2023/01/28 07:58:19;;;;;;;27.10;15.67;;;0.00;99.90;;;;;;5072776;28;20197;-87
2023/01/28 08:00:47;;;;;;;18.50;14.80;;;0.00;99.90;;;;;;5087768;28;20210;-85
2023/01/28 08:03:16;;;;;;;17.60;15.03;;;0.00;99.90;;;;;;5092219;28;20230;-85
2023/01/28 08:05:48;;;;;;;18.30;14.80;;;0.00;99.90;;;;;;5092165;28;20227;-87
2023/01/28 08:08:17;;;;;;;20.07;14.00;;;0.00;99.90;;;;;;5091942;28;20201;-86
2023/01/28 08:10:45;;;;;;;17.33;14.70;;;0.00;99.90;;;;;;5092682;28;20302;-87
2023/01/28 08:13:15;;;;;;;18.40;14.03;;;0.10;99.90;;;;;;5092468;28;20229;-86
2023/01/28 08:15:43;;;;;;;17.03;14.37;;;0.10;99.90;;;;;;5091911;28;20215;-87
2023/01/28 08:18:13;;;;;;;28.17;15.40;;;0.10;99.90;;;;;;5091523;28;20200;-87
2023/01/28 08:20:46;;;;;;;18.30;15.07;;;0.20;99.90;;;;;;5091897;28;20228;-86
2023/01/28 08:23:18;;;;;;;20.03;13.47;;;0.20;99.90;;;;;;5092130;28;20242;-86
2023/01/28 08:25:47;;;;;;;19.20;14.10;;;0.20;99.90;;;;;;5091868;28;20235;-86
2023/01/28 08:28:16;;;;;;;22.57;15.63;;;0.20;99.90;;;;;;5091822;28;20207;-87
2023/01/28 08:30:45;;;;;;;16.93;14.10;;;0.10;99.90;;;;;;5091659;28;20205;-86
2023/01/28 08:33:15;;;;;;;20.77;15.53;;;0.10;99.90;;;;;;5092567;28;20232;-86
2023/01/28 08:35:46;;;;;;;25.63;16.40;;;0.20;99.90;;;;;;5092140;28;20204;-86
2023/01/28 08:38:16;;;;;;;16.73;13.90;;;0.20;99.90;;;;;;5091893;28;20208;-86
2023/01/28 08:40:44;;;;;;;19.03;15.40;;;0.10;99.90;;;;;;5091959;28;20208;-85
2023/01/28 08:43:13;;;;;;;22.87;15.67;;;0.10;99.90;;;;;;5091764;28;20267;-85
2023/01/28 08:45:41;;;;;;;20.97;13.90;;;0.20;99.90;;;;;;5091879;28;20232;-85
2023/01/28 08:48:14;;;;;;;16.03;13.43;;;0.20;99.90;;;;;;5092011;28;20211;-86
2023/01/28 08:50:43;;;;;;;29.57;17.17;;;0.10;99.90;;;;;;5092729;28;20196;-85
2023/01/28 08:53:14;;;;;;;22.97;15.43;;;0.20;99.90;;;;;;5095303;28;20267;-86
2023/01/28 08:55:43;;;;;;;19.40;15.43;;;0.20;99.90;;;;;;5095026;28;20214;-85
2023/01/28 08:58:13;;;;;;;16.87;14.20;;;0.10;99.90;;;;;;5094980;28;20208;-84
2023/01/28 09:00:42;;;;;;;20.23;14.70;;;0.20;99.90;;;;;;5095149;28;20200;-85
2023/01/28 09:03:10;;;;;;;19.77;15.70;;;0.30;99.90;;;;;;5095333;28;20224;-85
2023/01/28 09:05:39;;;;;;;20.47;14.90;;;0.20;99.90;;;;;;5095764;28;20295;-85
2023/01/28 09:08:09;;;;;;;17.80;15.13;;;0.20;99.90;;;;;;5095512;28;20215;-85
2023/01/28 09:10:40;;;;;;;18.83;14.87;;;0.30;99.90;;;;;;5095313;28;20200;-86
2023/01/28 09:13:10;;;;;;;21.33;15.20;;;0.40;99.90;;;;;;5094944;28;20216;-85
2023/01/28 09:15:39;;;;;;;18.23;14.43;;;0.30;99.90;;;;;;5091137;28;20203;-85
2023/01/28 09:18:07;;;;;;;22.87;16.40;;;0.40;99.90;;;;;;5093908;28;20208;-85
2023/01/28 09:20:36;;;;;;;15.60;13.43;;;0.30;99.90;;;;;;5074920;28;20331;-86
2023/01/28 09:23:05;;;;;;;18.97;16.30;;;0.30;99.90;;;;;;5074842;28;20259;-85
2023/01/28 09:25:34;;;;;;;19.93;15.43;;;0.40;99.90;;;;;;5087187;28;20208;-85
2023/01/28 09:28:05;;;;;;;24.37;15.93;;;0.40;99.90;;;;;;5094257;28;20278;-85
2023/01/28 09:30:34;;;;;;;18.47;15.40;;;0.40;99.90;;;;;;5094991;28;20201;-85
2023/01/28 09:33:04;;;;;;;16.97;15.20;;;0.40;99.90;;;;;;5094084;28;20232;-83
2023/01/28 09:35:33;;;;;;;19.03;15.47;;;0.40;99.90;;;;;;5094478;28;20196;-83
2023/01/28 09:38:01;;;;;;;16.77;13.63;;;0.40;99.90;;;;;;5094280;28;20208;-83
2023/01/28 09:40:35;;;;;;;15.13;13.53;;;0.40;99.90;;;;;;5094528;28;20215;-83
2023/01/28 09:43:28;;;;;;;22.97;15.07;;;0.50;99.90;;;;;;5094395;28;20232;-83
2023/01/28 09:46:00;;;;;;;17.03;13.93;;;0.50;99.90;;;;;;5094253;28;20214;-83
2023/01/28 09:48:36;;;;;;;17.90;14.70;;;0.50;99.90;;;;;;5094589;28;20208;-83
2023/01/28 09:51:09;;;;;;;22.73;15.70;;;0.50;99.90;;;;;;5094520;28;20228;-82
2023/01/28 09:53:43;;;;;;;15.10;12.37;;;0.50;99.90;;;;;;5094222;28;20240;-82
2023/01/28 09:56:15;;;;;;;18.23;13.10;;;0.50;99.90;;;;;;5095047;28;20208;-83
2023/01/28 09:58:45;;;;;;;16.87;14.07;;;0.50;99.90;;;;;;5081273;28;20197;-82
2023/01/28 10:01:35;;;;;;;15.37;13.03;;;0.50;99.90;;;;;;5076566;28;20205;-82
2023/01/28 10:04:12;;;;;;;18.67;13.03;;;0.50;99.90;;;;;;5093562;28;20303;-81
2023/01/28 10:06:52;;;;;;;17.00;12.27;;;0.50;99.90;;;;;;5093854;28;20224;-81
2023/01/28 10:09:35;;;;;;;14.47;12.30;;;0.50;99.90;;;;;;5094607;28;20207;-81
2023/01/28 10:12:24;;;;;;;15.73;12.67;;;0.50;99.90;;;;;;5093412;28;20207;-85
2023/01/28 10:15:07;;;;;;;17.57;11.47;;;0.50;99.90;;;;;;5093727;28;20208;-81
2023/01/28 10:17:41;;;;;;;16.77;12.87;;;0.50;99.90;;;;;;5093062;28;20203;-82
2023/01/28 10:20:20;;;;;;;18.20;13.80;;;0.50;99.90;;;;;;5094103;28;20215;-81
2023/01/28 10:22:54;;;;;;;17.73;13.60;;;0.50;99.90;;;;;;5093091;28;20301;-82
2023/01/28 10:25:25;;;;;;;15.57;12.83;;;0.50;99.90;;;;;;5093610;28;20224;-81
2023/01/28 10:27:53;;;;;;;16.30;13.07;;;0.50;99.90;;;;;;5093285;28;20258;-81
2023/01/28 10:30:26;;;;;;;17.67;13.60;;;0.50;99.90;;;;;;5093909;28;20209;-81
2023/01/28 10:32:58;;;;;;;14.37;12.43;;;0.50;99.90;;;;;;5093717;28;20227;-81
2023/01/28 10:35:28;;;;;;;20.03;14.37;;;0.60;99.90;;;;;;5093795;28;20223;-82
2023/01/28 10:38:05;;;;;;;20.67;14.67;;;0.60;99.90;;;;;;5093432;28;20215;-81
2023/01/28 10:40:34;;;;;;;17.80;14.53;;;0.60;99.90;;;;;;5093544;28;20294;-81
2023/01/28 10:43:03;;;;;;;20.13;14.60;;;0.60;99.90;;;;;;5073251;28;20221;-81
2023/01/28 10:45:40;;;;;;;19.43;13.83;;;0.60;99.90;;;;;;5073395;28;20201;-82
2023/01/28 10:48:16;;;;;;;14.73;12.70;;;0.60;99.90;;;;;;5072766;28;20228;-83
2023/01/28 10:50:51;;;;;;;23.07;14.30;;;0.60;99.90;;;;;;5073752;28;20203;-84
2023/01/28 10:53:38;;;;;;;13.73;11.87;;;0.70;99.90;;;;;;5075885;28;20220;-83
2023/01/28 10:56:09;;;;;;;27.57;15.70;;;0.60;99.90;;;;;;5089533;28;20284;-84
2023/01/28 10:58:53;;;;;;;17.03;13.40;;;0.70;99.90;;;;;;5083265;28;20204;-83
2023/01/28 11:01:23;;;;;;;17.77;13.60;;;0.60;99.90;;;;;;5073447;28;20204;-83
2023/01/28 11:03:56;;;;;;;17.93;12.97;;;0.60;99.90;;;;;;5092450;28;20221;-83
2023/01/28 11:06:26;;;;;;;17.70;13.40;;;0.60;99.90;;;;;;5093856;28;20205;-83
2023/01/28 11:08:54;;;;;;;18.20;13.23;;;0.60;99.90;;;;;;5093234;28;20307;-84
2023/01/28 11:11:25;;;;;;;14.83;11.13;;;0.60;99.90;;;;;;5093128;28;20215;-83
2023/01/28 11:13:57;;;;;;;19.13;13.97;;;0.60;99.90;;;;;;5093194;28;20248;-83
2023/01/28 11:16:27;;;;;;;21.43;14.53;;;0.60;99.90;;;;;;5092331;28;20231;-83
2023/01/28 11:19:05;;;;;;;17.27;13.83;;;0.50;99.90;;;;;;5092694;28;20207;-84
2023/01/28 11:21:35;;;;;;;17.83;13.80;;;0.60;99.90;;;;;;5080380;28;20196;-83
2023/01/28 11:24:18;;;;;;;23.80;13.77;;;0.60;99.90;;;;;;5081033;28;20216;-83
2023/01/28 11:26:50;;;;;;;17.13;12.57;;;0.60;99.90;;;;;;5072787;28;20266;-78
2023/01/28 11:29:26;;;;;;;25.97;12.87;;;0.50;99.90;;;;;;5076733;28;20209;-78
2023/01/28 11:31:57;;;;;;;26.73;14.20;;;0.50;99.90;;;;;;5083444;28;20251;-78
2023/01/28 11:34:28;;;;;;;19.30;14.30;;;0.60;99.90;;;;;;5083614;28;20240;-78
2023/01/28 11:37:04;;;;;;;19.20;14.80;;;0.50;99.90;;;;;;5081769;28;20204;-77
2023/01/28 11:39:32;;;;;;;22.33;14.00;;;0.50;99.90;;;;;;5090485;28;20200;-78
2023/01/28 11:42:12;;;;;;;18.47;12.93;;;0.50;99.90;;;;;;5093269;28;20210;-78
2023/01/28 11:44:40;;;;;;;20.40;13.77;;;0.50;99.90;;;;;;5092943;28;20224;-78
2023/01/28 11:47:26;;;;;;;15.70;13.10;;;0.50;99.90;;;;;;5092350;28;20217;-78
2023/01/28 11:50:15;;;;;;;16.67;13.27;;;0.50;99.90;;;;;;5093605;28;20204;-79
2023/01/28 11:53:06;;;;;;;14.07;12.47;;;0.50;99.90;;;;;;5092918;28;20288;-79
2023/01/28 11:55:45;;;;;;;15.03;13.07;;;0.50;99.90;;;;;;5088455;28;20197;-78
2023/01/28 11:58:22;;;;;;;17.33;13.67;;;0.60;99.90;;;;;;5087908;28;20201;-79
2023/01/28 12:01:02;;;;;;;16.57;13.77;;;0.60;99.90;;;;;;5093202;28;20291;-79
2023/01/28 12:03:43;;;;;;;47.97;13.27;;;0.60;99.90;;;;;;5092315;28;20227;-79
2023/01/28 12:06:25;;;;;;;17.00;13.20;;;0.60;99.90;;;;;;5093230;28;20196;-79
2023/01/28 12:09:01;;;;;;;17.87;13.60;;;0.70;99.90;;;;;;5092506;28;20224;-79
2023/01/28 12:14:36;;;;;;;16.87;13.40;;;0.80;99.90;;;;;;5092929;28;20221;-78
2023/01/28 12:17:19;;;;;;;21.37;13.23;;;0.70;99.90;;;;;;5092541;28;20196;-79
2023/01/28 12:19:58;;;;;;;15.60;12.37;;;0.70;99.90;;;;;;5092552;28;20212;-79
2023/01/28 12:23:04;;;;;;;22.47;14.87;;;0.80;99.90;;;;;;5092883;28;20207;-78
2023/01/28 12:25:45;;;;;;;17.10;13.43;;;0.70;99.90;;;;;;5091059;28;20223;-78
2023/01/28 12:28:22;;;;;;;15.10;12.33;;;0.70;99.90;;;;;;5095682;28;20311;-79
2023/01/28 12:31:05;;;;;;;14.13;11.97;;;0.70;99.90;;;;;;5096884;28;20204;-81
2023/01/28 12:33:47;;;;;;;17.03;14.17;;;0.70;99.90;;;;;;5096370;28;20216;-80
2023/01/28 12:36:30;;;;;;;24.30;13.20;;;0.70;99.90;;;;;;5083655;28;20208;-79
2023/01/28 12:39:09;;;;;;;15.20;13.10;;;0.70;99.90;;;;;;5080686;28;20215;-79
2023/01/28 12:41:42;;;;;;;19.23;13.23;;;0.70;99.90;;;;;;5096550;28;20211;-79
2023/01/28 12:44:15;;;;;;;15.73;13.23;;;0.70;99.90;;;;;;5091732;28;20216;-79
2023/01/28 12:46:47;;;;;;;17.50;12.83;;;0.80;99.90;;;;;;5075752;28;20209;-80
2023/01/28 12:49:21;;;;;;;17.30;12.43;;;0.80;99.90;;;;;;5078151;28;20209;-79
2023/01/28 12:52:04;;;;;;;18.33;14.03;;;0.70;99.90;;;;;;5076716;28;20193;-80
2023/01/28 12:54:39;;;;;;;16.97;13.57;;;0.80;99.90;;;;;;5090790;28;20230;-80
2023/01/28 12:57:13;;;;;;;15.90;12.63;;;0.80;99.90;;;;;;5091331;28;20279;-79
2023/01/28 12:59:46;;;;;;;15.63;12.97;;;0.80;99.90;;;;;;5081257;28;20191;-80
2023/01/28 13:02:23;;;;;;;15.87;13.20;;;0.80;99.90;;;;;;5096264;28;20204;-79
2023/01/28 13:05:00;;;;;;;18.60;14.33;;;0.80;99.90;;;;;;5095836;28;20224;-80
2023/01/28 13:07:35;;;;;;;18.17;13.83;;;0.70;99.90;;;;;;5088852;28;20211;-79
2023/01/28 13:10:07;;;;;;;18.63;13.57;;;0.80;99.90;;;;;;5091388;28;20216;-79
2023/01/28 13:12:38;;;;;;;20.03;14.67;;;0.80;99.90;;;;;;5095968;28;20207;-79
2023/01/28 13:15:12;;;;;;;21.60;14.53;;;0.80;99.90;;;;;;5096291;28;20236;-79
2023/01/28 13:17:54;;;;;;;20.57;14.87;;;0.80;99.90;;;;;;5095362;28;20202;-81
2023/01/28 13:20:38;;;;;;;17.53;12.93;;;0.80;99.90;;;;;;5095688;28;20212;-79
2023/01/28 13:23:23;;;;;;;15.37;12.53;;;0.80;99.90;;;;;;5096099;28;20258;-81
2023/01/28 13:25:53;;;;;;;17.97;13.17;;;0.80;99.90;;;;;;5094634;28;20216;-79